Airfield :
LOGIN :

Register | Disclaimer

   EN    FR    IT 

 










Legend :    VFR   Marginal VFR   IFR   Intensive IFR   Very Intensive IFR
Visi :
Ceiling :
>= 8 km
>= 3000ft
5 to 8 km
1000 to 3000 ft
1500m to 5 km
500 to 1000 ft
800 to 1500m
200 to 500 ft
< 800m
< 200 ft
Symbols :   Thunderstorms  Fog  Heavy snow  Heavy precipitations  Wind > 20 kt
SIGMETs :     Misc.  Thunderstorms  Icing  Turbulence  Mountain Waves  Volcanic Ashes







- Airport Elevation : 215 ft
- IATA code : ABZ
- Download approach charts


EGPD - Aberdeen / Dyce

CURRENT METAR :
  • 170720Z 25013KT 9999 FEW015 SCT038 14/09 Q0995 NOSIG

EXPIRED METARs :
  • 170650Z 25012G23KT 220V280 9999 VCSH SCT015 SCT042 14/09 Q0994 NOSIG
  • 170620Z 23015KT 9999 SCT034 SCT041 14/10 Q0993 NOSIG
  • 170550Z 22019KT 9999 FEW018 13/10 Q0992
  • 170520Z AUTO 21018KT 9999 SCT018 13/10 Q0991
  • 170450Z 20022G32KT 9999 FEW018 12/10 Q0991 NOSIG

TAF AMD TAF EGPD
Valid from the 17 at 07:00 until the 18 at 06:00 UTC


170649Z 1707/1806 22017KT 9999 SCT025
TEMPO 1707/1708 24025G35KT
BECMG 1708/1711 28015KT
TEMPO 1710/1716 4000 -RADZ BKN007
BECMG 1712/1715 34015KT
TEMPO 1712/1717 34018G28KT
No reported NOTAMs for that airfield.
4 SIGMETs reported for the Scottish FIR (EGPX) :
 
Severe turbulence
EGPX SIGMET 06 VALID 170553/170900 EGRR
EGPX SCOTTISH FIR SEV TURB FCST E OF LINE N6100 W00800 - N5350 W00800 SFC/FL060 MOV E 15KT NC=
SIGMET 04 cancelation
EGPX SIGMET 05 VALID 170549/170900 EGRR
EGPX SCOTTISH FIR CNL SIGMET 04 170500/170900=
SIGMET 04  CANCELED :
Severe turbulence
EGPX SIGMET 04 VALID 170500/170900 EGRR
EGPX SCOTTISH FIR SEV TURB FCST E OF LINE N6100 W00815 - N5520 W00815 SFC/FL060 MOV E 15KT NC=
Severe mountain waves
EGPX SIGMET 03 VALID 170500/170900 EGRR
EGPX SCOTTISH FIR SEV MTW FCST WI N5500 E00115 - N5500 W00530 - N5355 W00530 - N5425 W00810 - N6100 W00810 - N6100 E00000 - N6000 E00000 - N5914 E00117 - N5500 E00115 FL030/200 STNR WKN=



MET'MAP, your aeronautical weather chart ! - Copyright ORBIFLY December 2007 - Disclaimer

ORBIFLY MET'MAP TEAM :

Programming & Development : Alexandra Zaïnal
Concept & Development : Baudouin d'Aumeries
Co-Development & Prog : Marc-Olivier Méhu
Technical & hardware support : Manuel Goepfert

Contact : metmap@orbifly.com




SOURCES & CREDITS :

   NOAA